Terminal Aerodrome Forecast
Issued by NWS

Home | Current Version | Previous Version | Text Only | Print | Product List | Glossary On
Versions: 1 2 3 4 5 6 7 8 9 10 11 12
000
FTUS42 KTAE 092300
TAFABY
TAF
KABY 092330Z 1000/1024 24008KT P6SM VCSH SCT100 BKN250
     FM100300 23006KT P6SM SCT250
     FM101900 22009KT P6SM SHRA VCTS BKN040CB
      TEMPO 1020/1024 3SM +TSRA=

USA.gov is the U.S. government's official web portal to all federal, state and local government web resources and services.